KENL/ENL METAR and TAF weather

Enter ICAO airport designator
Station Type Date Time Source
KENL METAR 2018/12/11 21:15 UTC NOAA

KENL 112115Z AUTO 21006KT 10SM CLR 10/00 A3011 RMK AO2 T00961005


Station Type Date Time Source
KENL Decoded METAR 2018/12/11 21:15 UTC NOAA

Centralia, Centralia Municipal Airport, IL, United States (KENL) 38-30-53N 089-05-32W
Dec 11, 2018 - 04:15 PM EST / 2018.12.11 2115 UTC
Wind: from the SSW (210 degrees) at 7 MPH (6 KT):0
Visibility: 10 mile(s):0
Sky conditions: clear
Temperature: 49.3 F (9.6 C)
Dew Point: 31.1 F (-0.5 C)
Relative Humidity: 49%
Pressure (altimeter): 30.11 in. Hg (1019 hPa)
ob: KENL 112115Z AUTO 21006KT 10SM CLR 10/00 A3011 RMK AO2 T00961005
cycle: 21

Station Type Date Time Source
KENL TAF UTC NOAA

Error!


Example: see airport list